sensor_id;sensor_type;location;lat;lon;timestamp;temperature;humidity
298;DHT22;133;49.626;9.680;2023-05-21T00:00:35;17.20;87.10
298;DHT22;133;49.626;9.680;2023-05-21T00:03:01;17.20;87.00
298;DHT22;133;49.626;9.680;2023-05-21T00:05:27;17.10;87.20
298;DHT22;133;49.626;9.680;2023-05-21T00:07:52;17.10;87.30
298;DHT22;133;49.626;9.680;2023-05-21T00:10:19;17.10;87.60
298;DHT22;133;49.626;9.680;2023-05-21T00:12:45;17.10;87.40
298;DHT22;133;49.626;9.680;2023-05-21T00:15:11;17.10;87.40
298;DHT22;133;49.626;9.680;2023-05-21T00:17:36;17.10;87.20
298;DHT22;133;49.626;9.680;2023-05-21T00:20:03;17.10;87.20
298;DHT22;133;49.626;9.680;2023-05-21T00:22:33;17.10;87.50
298;DHT22;133;49.626;9.680;2023-05-21T00:25:00;17.10;87.50
298;DHT22;133;49.626;9.680;2023-05-21T00:27:26;17.10;87.40
298;DHT22;133;49.626;9.680;2023-05-21T00:29:51;17.00;87.90
298;DHT22;133;49.626;9.680;2023-05-21T00:32:17;16.90;88.10
298;DHT22;133;49.626;9.680;2023-05-21T00:34:43;16.90;88.10
298;DHT22;133;49.626;9.680;2023-05-21T00:37:08;16.90;88.10
298;DHT22;133;49.626;9.680;2023-05-21T00:39:34;16.90;88.20
298;DHT22;133;49.626;9.680;2023-05-21T00:42:01;16.90;88.20
298;DHT22;133;49.626;9.680;2023-05-21T00:44:28;17.00;88.10
298;DHT22;133;49.626;9.680;2023-05-21T00:47:01;16.90;88.10
298;DHT22;133;49.626;9.680;2023-05-21T00:49:27;17.00;87.90
298;DHT22;133;49.626;9.680;2023-05-21T00:51:53;16.90;88.10
298;DHT22;133;49.626;9.680;2023-05-21T00:54:20;16.90;88.00
298;DHT22;133;49.626;9.680;2023-05-21T00:56:46;16.90;87.90
298;DHT22;133;49.626;9.680;2023-05-21T00:59:14;16.80;88.20
298;DHT22;133;49.626;9.680;2023-05-21T01:01:42;16.90;88.20
298;DHT22;133;49.626;9.680;2023-05-21T01:04:10;16.90;88.10
298;DHT22;133;49.626;9.680;2023-05-21T01:06:36;16.90;88.10
298;DHT22;133;49.626;9.680;2023-05-21T01:09:02;16.80;88.50
298;DHT22;133;49.626;9.680;2023-05-21T01:11:45;16.80;88.60
298;DHT22;133;49.626;9.680;2023-05-21T01:14:12;16.60;89.00
298;DHT22;133;49.626;9.680;2023-05-21T01:16:41;16.60;89.00
298;DHT22;133;49.626;9.680;2023-05-21T01:19:11;16.60;89.10
298;DHT22;133;49.626;9.680;2023-05-21T01:21:44;16.60;89.10
298;DHT22;133;49.626;9.680;2023-05-21T01:24:10;16.50;89.40
298;DHT22;133;49.626;9.680;2023-05-21T01:26:36;16.60;89.10
298;DHT22;133;49.626;9.680;2023-05-21T01:29:07;16.70;88.90
298;DHT22;133;49.626;9.680;2023-05-21T01:32:14;16.70;88.80
298;DHT22;133;49.626;9.680;2023-05-21T01:37:46;16.60;89.30
298;DHT22;133;49.626;9.680;2023-05-21T01:42:52;16.50;89.40
298;DHT22;133;49.626;9.680;2023-05-21T01:45:19;16.40;89.40
298;DHT22;133;49.626;9.680;2023-05-21T01:47:46;16.50;89.50
298;DHT22;133;49.626;9.680;2023-05-21T01:50:13;16.50;89.60
298;DHT22;133;49.626;9.680;2023-05-21T01:52:51;16.50;89.70
298;DHT22;133;49.626;9.680;2023-05-21T01:55:17;16.60;89.40
298;DHT22;133;49.626;9.680;2023-05-21T01:57:43;16.50;89.50
298;DHT22;133;49.626;9.680;2023-05-21T02:00:10;16.50;89.60
298;DHT22;133;49.626;9.680;2023-05-21T02:02:36;16.50;89.50
298;DHT22;133;49.626;9.680;2023-05-21T02:05:02;16.60;89.30
298;DHT22;133;49.626;9.680;2023-05-21T02:07:28;16.50;89.60
298;DHT22;133;49.626;9.680;2023-05-21T02:09:56;16.60;89.00
298;DHT22;133;49.626;9.680;2023-05-21T02:12:22;16.70;88.80
298;DHT22;133;49.626;9.680;2023-05-21T02:14:48;16.60;88.90
298;DHT22;133;49.626;9.680;2023-05-21T02:17:15;16.60;89.10
298;DHT22;133;49.626;9.680;2023-05-21T02:19:42;16.60;89.40
298;DHT22;133;49.626;9.680;2023-05-21T02:22:09;16.50;89.50
298;DHT22;133;49.626;9.680;2023-05-21T02:24:35;16.60;89.50
298;DHT22;133;49.626;9.680;2023-05-21T02:27:01;16.60;89.30
298;DHT22;133;49.626;9.680;2023-05-21T02:29:27;16.70;88.90
298;DHT22;133;49.626;9.680;2023-05-21T02:31:53;16.70;88.70
298;DHT22;133;49.626;9.680;2023-05-21T02:34:18;16.70;88.70
298;DHT22;133;49.626;9.680;2023-05-21T02:36:47;16.60;89.00
298;DHT22;133;49.626;9.680;2023-05-21T02:39:13;16.70;88.80
298;DHT22;133;49.626;9.680;2023-05-21T02:41:40;16.60;89.00
298;DHT22;133;49.626;9.680;2023-05-21T02:44:05;16.60;89.00
298;DHT22;133;49.626;9.680;2023-05-21T02:46:31;16.50;89.30
298;DHT22;133;49.626;9.680;2023-05-21T02:48:56;16.50;89.30
298;DHT22;133;49.626;9.680;2023-05-21T02:51:22;16.40;89.60
298;DHT22;133;49.626;9.680;2023-05-21T02:53:48;16.50;89.40
298;DHT22;133;49.626;9.680;2023-05-21T02:56:13;16.50;89.30
298;DHT22;133;49.626;9.680;2023-05-21T02:58:39;16.50;89.20
298;DHT22;133;49.626;9.680;2023-05-21T03:01:04;16.50;89.30
298;DHT22;133;49.626;9.680;2023-05-21T03:03:30;16.50;89.20
298;DHT22;133;49.626;9.680;2023-05-21T03:05:56;16.40;89.30
298;DHT22;133;49.626;9.680;2023-05-21T03:08:23;16.30;89.70
298;DHT22;133;49.626;9.680;2023-05-21T03:10:49;16.30;89.70
298;DHT22;133;49.626;9.680;2023-05-21T03:13:14;16.30;89.90
298;DHT22;133;49.626;9.680;2023-05-21T03:15:40;16.20;90.00
298;DHT22;133;49.626;9.680;2023-05-21T03:18:05;16.20;90.20
298;DHT22;133;49.626;9.680;2023-05-21T03:20:31;16.10;90.50
298;DHT22;133;49.626;9.680;2023-05-21T03:22:57;16.20;90.30
298;DHT22;133;49.626;9.680;2023-05-21T03:25:24;16.10;90.50
298;DHT22;133;49.626;9.680;2023-05-21T03:27:50;16.00;90.90
298;DHT22;133;49.626;9.680;2023-05-21T03:30:16;16.10;90.80
298;DHT22;133;49.626;9.680;2023-05-21T03:32:42;16.10;90.50
298;DHT22;133;49.626;9.680;2023-05-21T03:35:09;16.10;90.50
298;DHT22;133;49.626;9.680;2023-05-21T03:37:35;16.10;90.70
298;DHT22;133;49.626;9.680;2023-05-21T03:40:00;16.00;90.60
298;DHT22;133;49.626;9.680;2023-05-21T03:42:26;15.90;91.20
298;DHT22;133;49.626;9.680;2023-05-21T03:44:51;15.90;91.20
298;DHT22;133;49.626;9.680;2023-05-21T03:47:17;16.00;91.00
298;DHT22;133;49.626;9.680;2023-05-21T03:49:43;15.80;91.50
298;DHT22;133;49.626;9.680;2023-05-21T03:52:08;15.80;91.50
298;DHT22;133;49.626;9.680;2023-05-21T03:54:34;15.90;91.30
298;DHT22;133;49.626;9.680;2023-05-21T03:57:00;15.90;91.20
298;DHT22;133;49.626;9.680;2023-05-21T03:59:25;15.90;91.10
298;DHT22;133;49.626;9.680;2023-05-21T04:01:51;16.00;91.10
298;DHT22;133;49.626;9.680;2023-05-21T04:04:16;15.90;91.10
298;DHT22;133;49.626;9.680;2023-05-21T04:06:42;15.80;91.60
298;DHT22;133;49.626;9.680;2023-05-21T04:09:07;15.80;91.50
298;DHT22;133;49.626;9.680;2023-05-21T04:11:33;15.90;91.30
298;DHT22;133;49.626;9.680;2023-05-21T04:13:59;15.90;91.20
298;DHT22;133;49.626;9.680;2023-05-21T04:16:25;15.90;91.30
298;DHT22;133;49.626;9.680;2023-05-21T04:18:51;15.90;91.30
298;DHT22;133;49.626;9.680;2023-05-21T04:21:19;15.90;91.20
298;DHT22;133;49.626;9.680;2023-05-21T04:23:45;15.90;91.10
298;DHT22;133;49.626;9.680;2023-05-21T04:26:11;16.00;91.20
298;DHT22;133;49.626;9.680;2023-05-21T04:28:37;16.00;91.00
298;DHT22;133;49.626;9.680;2023-05-21T04:31:06;16.10;90.90
298;DHT22;133;49.626;9.680;2023-05-21T04:33:33;16.10;90.80
298;DHT22;133;49.626;9.680;2023-05-21T04:36:00;16.10;91.00
298;DHT22;133;49.626;9.680;2023-05-21T04:38:26;16.10;90.90
298;DHT22;133;49.626;9.680;2023-05-21T04:40:51;16.10;91.00
298;DHT22;133;49.626;9.680;2023-05-21T04:43:18;16.10;91.00
298;DHT22;133;49.626;9.680;2023-05-21T04:45:50;16.20;90.70
298;DHT22;133;49.626;9.680;2023-05-21T04:48:15;16.20;90.60
298;DHT22;133;49.626;9.680;2023-05-21T04:50:42;16.20;90.60
298;DHT22;133;49.626;9.680;2023-05-21T04:53:08;16.40;90.20
298;DHT22;133;49.626;9.680;2023-05-21T04:55:33;16.40;90.00
298;DHT22;133;49.626;9.680;2023-05-21T04:58:07;16.20;90.50
298;DHT22;133;49.626;9.680;2023-05-21T05:00:35;16.30;90.50
298;DHT22;133;49.626;9.680;2023-05-21T05:03:02;16.40;90.30
298;DHT22;133;49.626;9.680;2023-05-21T05:05:27;16.50;89.90
298;DHT22;133;49.626;9.680;2023-05-21T05:07:53;16.50;90.20
298;DHT22;133;49.626;9.680;2023-05-21T05:10:21;16.50;90.20
298;DHT22;133;49.626;9.680;2023-05-21T05:12:47;16.60;90.10
298;DHT22;133;49.626;9.680;2023-05-21T05:15:13;16.70;89.60
298;DHT22;133;49.626;9.680;2023-05-21T05:17:39;16.70;89.20
298;DHT22;133;49.626;9.680;2023-05-21T05:20:06;16.70;88.90
298;DHT22;133;49.626;9.680;2023-05-21T05:22:32;16.50;89.60
298;DHT22;133;49.626;9.680;2023-05-21T05:24:58;16.50;89.90
298;DHT22;133;49.626;9.680;2023-05-21T05:27:23;16.60;89.70
298;DHT22;133;49.626;9.680;2023-05-21T05:29:49;16.70;89.60
298;DHT22;133;49.626;9.680;2023-05-21T05:32:14;16.60;89.30
298;DHT22;133;49.626;9.680;2023-05-21T05:34:44;16.50;90.20
298;DHT22;133;49.626;9.680;2023-05-21T05:37:11;16.60;90.20
298;DHT22;133;49.626;9.680;2023-05-21T05:39:36;16.70;89.50
298;DHT22;133;49.626;9.680;2023-05-21T05:42:02;16.80;89.50
298;DHT22;133;49.626;9.680;2023-05-21T05:44:28;16.80;89.40
298;DHT22;133;49.626;9.680;2023-05-21T05:46:53;16.60;89.70
298;DHT22;133;49.626;9.680;2023-05-21T05:49:19;16.70;89.80
298;DHT22;133;49.626;9.680;2023-05-21T05:51:45;16.90;89.50
298;DHT22;133;49.626;9.680;2023-05-21T05:54:10;17.00;89.20
298;DHT22;133;49.626;9.680;2023-05-21T05:56:36;17.00;88.80
298;DHT22;133;49.626;9.680;2023-05-21T05:59:01;17.10;88.90
298;DHT22;133;49.626;9.680;2023-05-21T06:01:27;17.10;88.90
298;DHT22;133;49.626;9.680;2023-05-21T06:03:53;17.10;88.90
298;DHT22;133;49.626;9.680;2023-05-21T06:06:18;17.20;88.90
298;DHT22;133;49.626;9.680;2023-05-21T06:08:44;17.00;89.20
298;DHT22;133;49.626;9.680;2023-05-21T06:11:10;17.10;89.20
298;DHT22;133;49.626;9.680;2023-05-21T06:13:36;17.20;89.20
298;DHT22;133;49.626;9.680;2023-05-21T06:16:02;17.20;89.30
298;DHT22;133;49.626;9.680;2023-05-21T06:18:28;17.30;89.10
298;DHT22;133;49.626;9.680;2023-05-21T06:20:53;17.40;88.80
298;DHT22;133;49.626;9.680;2023-05-21T06:23:19;17.50;88.70
298;DHT22;133;49.626;9.680;2023-05-21T06:25:45;17.70;88.40
298;DHT22;133;49.626;9.680;2023-05-21T06:28:11;17.80;87.90
298;DHT22;133;49.626;9.680;2023-05-21T06:30:40;17.90;87.80
298;DHT22;133;49.626;9.680;2023-05-21T06:33:05;18.00;87.20
298;DHT22;133;49.626;9.680;2023-05-21T06:35:31;18.10;87.40
298;DHT22;133;49.626;9.680;2023-05-21T06:37:59;18.20;87.10
298;DHT22;133;49.626;9.680;2023-05-21T06:40:27;18.40;86.90
298;DHT22;133;49.626;9.680;2023-05-21T06:42:52;18.50;86.60
298;DHT22;133;49.626;9.680;2023-05-21T06:45:20;18.60;86.40
298;DHT22;133;49.626;9.680;2023-05-21T06:47:46;18.70;86.40
298;DHT22;133;49.626;9.680;2023-05-21T06:50:11;18.80;85.90
298;DHT22;133;49.626;9.680;2023-05-21T06:52:37;18.90;85.50
298;DHT22;133;49.626;9.680;2023-05-21T06:55:02;19.10;85.40
298;DHT22;133;49.626;9.680;2023-05-21T06:57:28;19.20;85.20
298;DHT22;133;49.626;9.680;2023-05-21T06:59:54;19.40;84.90
298;DHT22;133;49.626;9.680;2023-05-21T07:02:19;19.50;84.70
298;DHT22;133;49.626;9.680;2023-05-21T07:04:45;19.50;84.10
298;DHT22;133;49.626;9.680;2023-05-21T07:07:10;19.60;84.10
298;DHT22;133;49.626;9.680;2023-05-21T07:09:36;19.70;84.40
298;DHT22;133;49.626;9.680;2023-05-21T07:12:02;19.90;83.90
298;DHT22;133;49.626;9.680;2023-05-21T07:14:28;20.10;83.40
298;DHT22;133;49.626;9.680;2023-05-21T07:16:53;20.20;83.10
298;DHT22;133;49.626;9.680;2023-05-21T07:19:19;20.30;82.80
298;DHT22;133;49.626;9.680;2023-05-21T07:21:45;20.40;82.50
298;DHT22;133;49.626;9.680;2023-05-21T07:24:11;20.50;82.10
298;DHT22;133;49.626;9.680;2023-05-21T07:26:36;20.60;81.70
298;DHT22;133;49.626;9.680;2023-05-21T07:29:02;20.80;81.50
298;DHT22;133;49.626;9.680;2023-05-21T07:31:28;20.90;80.60
298;DHT22;133;49.626;9.680;2023-05-21T07:33:53;21.00;80.70
298;DHT22;133;49.626;9.680;2023-05-21T07:36:19;21.00;80.40
298;DHT22;133;49.626;9.680;2023-05-21T07:38:44;21.20;79.80
298;DHT22;133;49.626;9.680;2023-05-21T07:41:10;21.30;79.50
298;DHT22;133;49.626;9.680;2023-05-21T07:43:37;21.40;79.30
298;DHT22;133;49.626;9.680;2023-05-21T07:46:03;21.50;78.50
298;DHT22;133;49.626;9.680;2023-05-21T07:48:28;21.60;78.50
298;DHT22;133;49.626;9.680;2023-05-21T07:50:54;21.50;77.40
298;DHT22;133;49.626;9.680;2023-05-21T07:53:20;21.40;76.20
298;DHT22;133;49.626;9.680;2023-05-21T07:55:46;21.60;76.50
298;DHT22;133;49.626;9.680;2023-05-21T07:58:16;21.60;76.40
298;DHT22;133;49.626;9.680;2023-05-21T08:00:46;21.70;76.50
298;DHT22;133;49.626;9.680;2023-05-21T08:03:15;21.80;76.70
298;DHT22;133;49.626;9.680;2023-05-21T08:05:45;22.00;75.70
298;DHT22;133;49.626;9.680;2023-05-21T08:08:17;22.00;75.60
298;DHT22;133;49.626;9.680;2023-05-21T08:10:43;22.00;75.10
298;DHT22;133;49.626;9.680;2023-05-21T08:13:11;22.00;74.90
298;DHT22;133;49.626;9.680;2023-05-21T08:15:36;22.00;74.70
298;DHT22;133;49.626;9.680;2023-05-21T08:18:02;22.10;74.60
298;DHT22;133;49.626;9.680;2023-05-21T08:20:28;22.30;74.70
298;DHT22;133;49.626;9.680;2023-05-21T08:22:55;22.40;74.70
298;DHT22;133;49.626;9.680;2023-05-21T08:25:21;22.40;74.20
298;DHT22;133;49.626;9.680;2023-05-21T08:27:47;22.60;74.60
298;DHT22;133;49.626;9.680;2023-05-21T08:30:12;22.80;74.40
298;DHT22;133;49.626;9.680;2023-05-21T08:32:39;22.90;74.80
298;DHT22;133;49.626;9.680;2023-05-21T08:35:05;23.00;74.00
298;DHT22;133;49.626;9.680;2023-05-21T08:37:31;23.10;74.30
298;DHT22;133;49.626;9.680;2023-05-21T08:39:57;23.10;72.80
298;DHT22;133;49.626;9.680;2023-05-21T08:45:08;23.20;72.30
298;DHT22;133;49.626;9.680;2023-05-21T08:47:35;23.40;73.00
298;DHT22;133;49.626;9.680;2023-05-21T08:50:11;23.40;73.00
298;DHT22;133;49.626;9.680;2023-05-21T08:52:38;23.50;71.30
298;DHT22;133;49.626;9.680;2023-05-21T08:55:04;23.60;70.80
298;DHT22;133;49.626;9.680;2023-05-21T08:57:30;23.80;69.90
298;DHT22;133;49.626;9.680;2023-05-21T08:59:56;24.30;69.40
298;DHT22;133;49.626;9.680;2023-05-21T09:02:22;25.30;67.80
298;DHT22;133;49.626;9.680;2023-05-21T09:04:52;26.60;64.90
298;DHT22;133;49.626;9.680;2023-05-21T09:07:23;28.20;62.00
298;DHT22;133;49.626;9.680;2023-05-21T09:09:57;29.70;59.50
298;DHT22;133;49.626;9.680;2023-05-21T09:12:27;31.40;54.70
298;DHT22;133;49.626;9.680;2023-05-21T09:14:53;32.40;53.10
298;DHT22;133;49.626;9.680;2023-05-21T09:17:18;33.40;50.50
298;DHT22;133;49.626;9.680;2023-05-21T09:20:11;33.90;49.10
298;DHT22;133;49.626;9.680;2023-05-21T09:22:40;34.90;47.00
298;DHT22;133;49.626;9.680;2023-05-21T09:25:07;35.30;46.10
298;DHT22;133;49.626;9.680;2023-05-21T09:27:33;35.50;45.90
298;DHT22;133;49.626;9.680;2023-05-21T09:30:01;36.30;45.20
298;DHT22;133;49.626;9.680;2023-05-21T09:32:26;36.80;43.80
298;DHT22;133;49.626;9.680;2023-05-21T09:34:52;36.20;44.00
298;DHT22;133;49.626;9.680;2023-05-21T09:37:18;35.50;45.10
298;DHT22;133;49.626;9.680;2023-05-21T09:39:46;34.90;45.30
298;DHT22;133;49.626;9.680;2023-05-21T09:42:12;34.90;45.30
298;DHT22;133;49.626;9.680;2023-05-21T09:44:38;34.90;45.50
298;DHT22;133;49.626;9.680;2023-05-21T09:47:04;34.80;45.90
298;DHT22;133;49.626;9.680;2023-05-21T09:49:30;35.10;45.80
298;DHT22;133;49.626;9.680;2023-05-21T09:51:56;35.20;45.90
298;DHT22;133;49.626;9.680;2023-05-21T09:54:23;35.50;45.50
298;DHT22;133;49.626;9.680;2023-05-21T09:56:50;35.40;45.10
298;DHT22;133;49.626;9.680;2023-05-21T09:59:17;35.20;45.70
298;DHT22;133;49.626;9.680;2023-05-21T10:01:43;35.40;45.10
298;DHT22;133;49.626;9.680;2023-05-21T10:04:10;35.10;45.40
298;DHT22;133;49.626;9.680;2023-05-21T10:06:46;34.60;46.00
298;DHT22;133;49.626;9.680;2023-05-21T10:09:14;34.20;46.50
298;DHT22;133;49.626;9.680;2023-05-21T10:11:43;33.90;46.70
298;DHT22;133;49.626;9.680;2023-05-21T10:14:16;33.30;47.40
298;DHT22;133;49.626;9.680;2023-05-21T10:16:43;33.00;47.80
298;DHT22;133;49.626;9.680;2023-05-21T10:19:11;32.70;48.10
298;DHT22;133;49.626;9.680;2023-05-21T10:21:37;32.30;49.00
298;DHT22;133;49.626;9.680;2023-05-21T10:24:06;32.10;48.90
298;DHT22;133;49.626;9.680;2023-05-21T10:26:32;32.20;49.50
298;DHT22;133;49.626;9.680;2023-05-21T10:28:59;32.40;48.90
298;DHT22;133;49.626;9.680;2023-05-21T10:31:25;32.60;48.70
298;DHT22;133;49.626;9.680;2023-05-21T10:33:55;32.80;48.30
298;DHT22;133;49.626;9.680;2023-05-21T10:36:22;32.70;48.50
298;DHT22;133;49.626;9.680;2023-05-21T10:38:48;33.10;48.40
298;DHT22;133;49.626;9.680;2023-05-21T10:41:18;33.70;47.70
298;DHT22;133;49.626;9.680;2023-05-21T10:44:01;34.10;46.50
298;DHT22;133;49.626;9.680;2023-05-21T10:47:06;34.70;45.90
298;DHT22;133;49.626;9.680;2023-05-21T11:00:44;34.70;45.70
298;DHT22;133;49.626;9.680;2023-05-21T11:03:12;35.20;45.50
298;DHT22;133;49.626;9.680;2023-05-21T11:05:38;36.00;44.10
298;DHT22;133;49.626;9.680;2023-05-21T11:08:21;36.40;44.30
298;DHT22;133;49.626;9.680;2023-05-21T11:10:57;36.50;44.30
298;DHT22;133;49.626;9.680;2023-05-21T11:13:27;35.30;45.80
298;DHT22;133;49.626;9.680;2023-05-21T11:21:11;35.50;44.80
298;DHT22;133;49.626;9.680;2023-05-21T11:23:53;35.70;45.20
298;DHT22;133;49.626;9.680;2023-05-21T11:26:25;35.40;44.10
298;DHT22;133;49.626;9.680;2023-05-21T11:31:29;34.60;44.30
298;DHT22;133;49.626;9.680;2023-05-21T11:34:12;35.00;45.50
298;DHT22;133;49.626;9.680;2023-05-21T11:36:41;34.50;46.60
298;DHT22;133;49.626;9.680;2023-05-21T11:39:08;34.40;46.30
298;DHT22;133;49.626;9.680;2023-05-21T11:42:01;34.50;46.20
298;DHT22;133;49.626;9.680;2023-05-21T11:44:37;34.90;45.10
298;DHT22;133;49.626;9.680;2023-05-21T11:47:04;35.40;45.00
298;DHT22;133;49.626;9.680;2023-05-21T11:49:31;34.70;46.00
298;DHT22;133;49.626;9.680;2023-05-21T11:51:58;35.50;44.10
298;DHT22;133;49.626;9.680;2023-05-21T11:54:24;35.50;43.40
298;DHT22;133;49.626;9.680;2023-05-21T11:56:51;35.20;44.20
298;DHT22;133;49.626;9.680;2023-05-21T11:59:17;35.80;44.60
298;DHT22;133;49.626;9.680;2023-05-21T12:01:42;35.60;44.10
298;DHT22;133;49.626;9.680;2023-05-21T12:04:09;35.60;42.70
298;DHT22;133;49.626;9.680;2023-05-21T12:06:45;35.60;43.90
298;DHT22;133;49.626;9.680;2023-05-21T12:09:12;36.10;43.40
298;DHT22;133;49.626;9.680;2023-05-21T12:11:40;35.60;43.20
298;DHT22;133;49.626;9.680;2023-05-21T12:14:07;36.10;41.80
298;DHT22;133;49.626;9.680;2023-05-21T12:16:34;35.60;43.40
298;DHT22;133;49.626;9.680;2023-05-21T12:19:01;35.80;43.60
298;DHT22;133;49.626;9.680;2023-05-21T12:21:28;36.80;42.40
298;DHT22;133;49.626;9.680;2023-05-21T12:23:54;36.50;42.50
298;DHT22;133;49.626;9.680;2023-05-21T12:26:21;36.80;41.00
298;DHT22;133;49.626;9.680;2023-05-21T12:28:51;36.90;41.20
298;DHT22;133;49.626;9.680;2023-05-21T12:31:17;36.80;41.70
298;DHT22;133;49.626;9.680;2023-05-21T12:33:52;37.30;41.50
298;DHT22;133;49.626;9.680;2023-05-21T12:36:30;37.30;41.30
298;DHT22;133;49.626;9.680;2023-05-21T12:38:58;37.90;40.80
298;DHT22;133;49.626;9.680;2023-05-21T12:41:25;37.40;39.70
298;DHT22;133;49.626;9.680;2023-05-21T12:43:50;37.10;40.80
298;DHT22;133;49.626;9.680;2023-05-21T12:46:16;37.60;40.30
298;DHT22;133;49.626;9.680;2023-05-21T12:48:53;37.40;40.40
298;DHT22;133;49.626;9.680;2023-05-21T12:51:19;38.00;39.30
298;DHT22;133;49.626;9.680;2023-05-21T12:53:46;37.70;39.50
298;DHT22;133;49.626;9.680;2023-05-21T12:56:13;37.70;40.60
298;DHT22;133;49.626;9.680;2023-05-21T12:58:42;38.00;39.60
298;DHT22;133;49.626;9.680;2023-05-21T13:01:13;37.80;39.80
298;DHT22;133;49.626;9.680;2023-05-21T13:03:40;37.60;40.40
298;DHT22;133;49.626;9.680;2023-05-21T13:06:09;37.20;39.70
298;DHT22;133;49.626;9.680;2023-05-21T13:08:35;37.00;40.90
298;DHT22;133;49.626;9.680;2023-05-21T13:11:01;37.20;40.00
298;DHT22;133;49.626;9.680;2023-05-21T13:13:27;37.30;40.60
298;DHT22;133;49.626;9.680;2023-05-21T13:15:53;37.20;39.80
298;DHT22;133;49.626;9.680;2023-05-21T13:18:20;37.10;39.60
298;DHT22;133;49.626;9.680;2023-05-21T13:20:46;37.00;40.60
298;DHT22;133;49.626;9.680;2023-05-21T13:23:13;37.10;40.00
298;DHT22;133;49.626;9.680;2023-05-21T13:25:39;36.90;40.70
298;DHT22;133;49.626;9.680;2023-05-21T13:28:05;36.60;40.10
298;DHT22;133;49.626;9.680;2023-05-21T13:30:33;36.50;41.80
298;DHT22;133;49.626;9.680;2023-05-21T13:32:58;36.20;41.30
298;DHT22;133;49.626;9.680;2023-05-21T13:35:24;36.10;40.10
298;DHT22;133;49.626;9.680;2023-05-21T13:37:50;35.50;41.00
298;DHT22;133;49.626;9.680;2023-05-21T13:40:16;35.40;41.50
298;DHT22;133;49.626;9.680;2023-05-21T13:42:43;35.30;42.50
298;DHT22;133;49.626;9.680;2023-05-21T13:45:10;35.10;42.00
298;DHT22;133;49.626;9.680;2023-05-21T13:47:36;35.40;41.70
298;DHT22;133;49.626;9.680;2023-05-21T13:50:02;35.40;41.50
298;DHT22;133;49.626;9.680;2023-05-21T13:52:28;35.50;42.20
298;DHT22;133;49.626;9.680;2023-05-21T13:54:54;35.40;42.60
298;DHT22;133;49.626;9.680;2023-05-21T13:57:19;35.20;42.40
298;DHT22;133;49.626;9.680;2023-05-21T13:59:45;35.10;42.30
298;DHT22;133;49.626;9.680;2023-05-21T14:02:11;34.80;42.90
298;DHT22;133;49.626;9.680;2023-05-21T14:04:37;34.70;43.50
298;DHT22;133;49.626;9.680;2023-05-21T14:07:03;34.60;43.30
298;DHT22;133;49.626;9.680;2023-05-21T14:09:29;34.80;43.90
298;DHT22;133;49.626;9.680;2023-05-21T14:11:55;34.40;43.60
298;DHT22;133;49.626;9.680;2023-05-21T14:14:22;34.50;42.50
298;DHT22;133;49.626;9.680;2023-05-21T14:16:48;34.30;43.40
298;DHT22;133;49.626;9.680;2023-05-21T14:19:14;34.30;43.30
298;DHT22;133;49.626;9.680;2023-05-21T14:21:40;34.10;43.30
298;DHT22;133;49.626;9.680;2023-05-21T14:24:06;34.10;43.20
298;DHT22;133;49.626;9.680;2023-05-21T14:26:31;33.80;42.70
298;DHT22;133;49.626;9.680;2023-05-21T14:28:57;33.80;43.40
298;DHT22;133;49.626;9.680;2023-05-21T14:31:23;33.90;43.60
298;DHT22;133;49.626;9.680;2023-05-21T14:33:50;33.90;44.50
298;DHT22;133;49.626;9.680;2023-05-21T14:36:15;34.00;43.70
298;DHT22;133;49.626;9.680;2023-05-21T14:38:41;34.10;44.30
298;DHT22;133;49.626;9.680;2023-05-21T14:41:07;34.30;43.60
298;DHT22;133;49.626;9.680;2023-05-21T14:43:34;34.40;44.50
298;DHT22;133;49.626;9.680;2023-05-21T14:45:59;34.30;43.50
298;DHT22;133;49.626;9.680;2023-05-21T14:48:25;34.20;42.60
298;DHT22;133;49.626;9.680;2023-05-21T14:50:51;34.30;42.90
298;DHT22;133;49.626;9.680;2023-05-21T14:53:17;34.20;42.20
298;DHT22;133;49.626;9.680;2023-05-21T14:55:44;34.20;42.40
298;DHT22;133;49.626;9.680;2023-05-21T14:58:10;34.10;41.60
298;DHT22;133;49.626;9.680;2023-05-21T15:00:36;33.70;41.90
298;DHT22;133;49.626;9.680;2023-05-21T15:03:01;33.50;42.00
298;DHT22;133;49.626;9.680;2023-05-21T15:05:27;33.30;43.40
298;DHT22;133;49.626;9.680;2023-05-21T15:07:54;33.10;44.50
298;DHT22;133;49.626;9.680;2023-05-21T15:10:21;32.80;44.30
298;DHT22;133;49.626;9.680;2023-05-21T15:12:47;32.60;44.00
298;DHT22;133;49.626;9.680;2023-05-21T15:15:12;32.60;44.10
298;DHT22;133;49.626;9.680;2023-05-21T15:17:38;32.70;44.60
298;DHT22;133;49.626;9.680;2023-05-21T15:20:05;32.50;44.90
298;DHT22;133;49.626;9.680;2023-05-21T15:22:30;32.40;44.80
298;DHT22;133;49.626;9.680;2023-05-21T15:24:56;32.20;45.60
298;DHT22;133;49.626;9.680;2023-05-21T15:27:22;32.30;45.40
298;DHT22;133;49.626;9.680;2023-05-21T15:29:49;32.40;45.40
298;DHT22;133;49.626;9.680;2023-05-21T15:32:15;32.40;45.80
298;DHT22;133;49.626;9.680;2023-05-21T15:34:41;32.40;46.50
298;DHT22;133;49.626;9.680;2023-05-21T15:37:06;32.30;45.30
298;DHT22;133;49.626;9.680;2023-05-21T15:39:32;32.20;46.10
298;DHT22;133;49.626;9.680;2023-05-21T15:41:58;32.10;45.40
298;DHT22;133;49.626;9.680;2023-05-21T15:44:24;32.00;46.40
298;DHT22;133;49.626;9.680;2023-05-21T15:46:50;31.70;46.10
298;DHT22;133;49.626;9.680;2023-05-21T15:49:18;31.50;45.90
298;DHT22;133;49.626;9.680;2023-05-21T15:51:45;31.60;46.30
298;DHT22;133;49.626;9.680;2023-05-21T15:54:11;31.50;46.40
298;DHT22;133;49.626;9.680;2023-05-21T15:56:38;31.50;46.70
298;DHT22;133;49.626;9.680;2023-05-21T15:59:04;31.60;47.10
298;DHT22;133;49.626;9.680;2023-05-21T16:01:30;31.70;46.90
298;DHT22;133;49.626;9.680;2023-05-21T16:03:56;31.60;47.50
298;DHT22;133;49.626;9.680;2023-05-21T16:06:22;31.70;47.50
298;DHT22;133;49.626;9.680;2023-05-21T16:08:47;31.50;47.70
298;DHT22;133;49.626;9.680;2023-05-21T16:11:13;31.30;48.40
298;DHT22;133;49.626;9.680;2023-05-21T16:13:39;31.50;48.50
298;DHT22;133;49.626;9.680;2023-05-21T16:16:05;31.60;47.50
298;DHT22;133;49.626;9.680;2023-05-21T16:18:31;31.40;47.50
298;DHT22;133;49.626;9.680;2023-05-21T16:20:56;31.30;47.40
298;DHT22;133;49.626;9.680;2023-05-21T16:23:22;31.10;48.00
298;DHT22;133;49.626;9.680;2023-05-21T16:25:48;31.10;47.60
298;DHT22;133;49.626;9.680;2023-05-21T16:28:14;31.00;48.10
298;DHT22;133;49.626;9.680;2023-05-21T16:30:40;30.90;47.70
298;DHT22;133;49.626;9.680;2023-05-21T16:33:06;30.90;48.10
298;DHT22;133;49.626;9.680;2023-05-21T16:35:32;30.80;48.40
298;DHT22;133;49.626;9.680;2023-05-21T16:37:58;30.70;48.80
298;DHT22;133;49.626;9.680;2023-05-21T16:40:24;30.70;49.00
298;DHT22;133;49.626;9.680;2023-05-21T16:42:51;30.60;49.50
298;DHT22;133;49.626;9.680;2023-05-21T16:45:17;30.50;49.50
298;DHT22;133;49.626;9.680;2023-05-21T16:47:51;30.50;49.80
298;DHT22;133;49.626;9.680;2023-05-21T16:50:20;30.40;50.00
298;DHT22;133;49.626;9.680;2023-05-21T16:52:46;30.30;49.60
298;DHT22;133;49.626;9.680;2023-05-21T16:55:11;30.10;49.80
298;DHT22;133;49.626;9.680;2023-05-21T16:57:37;30.10;50.20
298;DHT22;133;49.626;9.680;2023-05-21T17:00:03;30.00;50.70